sensor_id;sensor_type;location;lat;lon;timestamp;temperature;humidity
20376;DHT22;10347;51.828;6.466;2023-01-15T00:00:46;10.40;99.90
20376;DHT22;10347;51.828;6.466;2023-01-15T00:03:12;10.40;99.90
20376;DHT22;10347;51.828;6.466;2023-01-15T00:05:37;10.40;99.90
20376;DHT22;10347;51.828;6.466;2023-01-15T00:08:03;10.40;99.90
20376;DHT22;10347;51.828;6.466;2023-01-15T00:10:29;10.40;99.90
20376;DHT22;10347;51.828;6.466;2023-01-15T00:12:54;10.40;99.90
20376;DHT22;10347;51.828;6.466;2023-01-15T00:15:20;10.40;99.90
20376;DHT22;10347;51.828;6.466;2023-01-15T00:17:46;10.40;99.90
20376;DHT22;10347;51.828;6.466;2023-01-15T00:20:11;10.30;99.90
20376;DHT22;10347;51.828;6.466;2023-01-15T00:22:37;10.40;99.90
20376;DHT22;10347;51.828;6.466;2023-01-15T00:25:03;10.40;99.90
20376;DHT22;10347;51.828;6.466;2023-01-15T00:27:47;10.40;99.90
20376;DHT22;10347;51.828;6.466;2023-01-15T00:30:14;10.40;99.90
20376;DHT22;10347;51.828;6.466;2023-01-15T00:32:41;10.40;99.90
20376;DHT22;10347;51.828;6.466;2023-01-15T00:35:14;10.30;99.90
20376;DHT22;10347;51.828;6.466;2023-01-15T00:37:40;10.30;99.90
20376;DHT22;10347;51.828;6.466;2023-01-15T00:40:06;10.30;99.90
20376;DHT22;10347;51.828;6.466;2023-01-15T00:42:32;10.30;99.90
20376;DHT22;10347;51.828;6.466;2023-01-15T00:44:58;10.20;99.90
20376;DHT22;10347;51.828;6.466;2023-01-15T00:47:23;10.20;99.90
20376;DHT22;10347;51.828;6.466;2023-01-15T00:49:49;10.10;99.90
20376;DHT22;10347;51.828;6.466;2023-01-15T00:52:15;10.20;99.90
20376;DHT22;10347;51.828;6.466;2023-01-15T00:54:41;10.10;99.90
20376;DHT22;10347;51.828;6.466;2023-01-15T00:57:06;10.10;99.90
20376;DHT22;10347;51.828;6.466;2023-01-15T00:59:35;10.10;99.90
20376;DHT22;10347;51.828;6.466;2023-01-15T01:02:01;10.00;99.90
20376;DHT22;10347;51.828;6.466;2023-01-15T01:04:26;10.00;99.90
20376;DHT22;10347;51.828;6.466;2023-01-15T01:06:52;10.00;99.90
20376;DHT22;10347;51.828;6.466;2023-01-15T01:09:17;10.00;99.90
20376;DHT22;10347;51.828;6.466;2023-01-15T01:11:43;10.00;99.90
20376;DHT22;10347;51.828;6.466;2023-01-15T01:14:10;9.90;99.90
20376;DHT22;10347;51.828;6.466;2023-01-15T01:16:38;9.90;99.90
20376;DHT22;10347;51.828;6.466;2023-01-15T01:19:06;9.90;99.90
20376;DHT22;10347;51.828;6.466;2023-01-15T01:21:33;9.90;99.90
20376;DHT22;10347;51.828;6.466;2023-01-15T01:24:00;9.90;99.90
20376;DHT22;10347;51.828;6.466;2023-01-15T01:26:27;9.80;99.90
20376;DHT22;10347;51.828;6.466;2023-01-15T01:28:53;9.80;99.90
20376;DHT22;10347;51.828;6.466;2023-01-15T01:31:20;9.90;99.90
20376;DHT22;10347;51.828;6.466;2023-01-15T01:33:51;9.90;99.90
20376;DHT22;10347;51.828;6.466;2023-01-15T01:36:18;9.90;99.90
20376;DHT22;10347;51.828;6.466;2023-01-15T01:38:46;9.90;99.90
20376;DHT22;10347;51.828;6.466;2023-01-15T01:41:15;9.90;99.90
20376;DHT22;10347;51.828;6.466;2023-01-15T01:44:02;9.80;99.90
20376;DHT22;10347;51.828;6.466;2023-01-15T01:46:30;9.80;99.90
20376;DHT22;10347;51.828;6.466;2023-01-15T01:49:08;9.80;99.90
20376;DHT22;10347;51.828;6.466;2023-01-15T01:52:00;9.80;99.90
20376;DHT22;10347;51.828;6.466;2023-01-15T01:54:29;9.80;99.90
20376;DHT22;10347;51.828;6.466;2023-01-15T01:56:56;9.70;99.90
20376;DHT22;10347;51.828;6.466;2023-01-15T01:59:23;9.70;99.90
20376;DHT22;10347;51.828;6.466;2023-01-15T02:01:50;9.70;99.90
20376;DHT22;10347;51.828;6.466;2023-01-15T02:04:17;9.70;99.90
20376;DHT22;10347;51.828;6.466;2023-01-15T02:06:44;9.70;99.90
20376;DHT22;10347;51.828;6.466;2023-01-15T02:09:10;9.60;99.90
20376;DHT22;10347;51.828;6.466;2023-01-15T02:11:36;9.60;99.90
20376;DHT22;10347;51.828;6.466;2023-01-15T02:14:14;9.60;99.90
20376;DHT22;10347;51.828;6.466;2023-01-15T02:17:07;9.50;99.90
20376;DHT22;10347;51.828;6.466;2023-01-15T02:19:55;9.60;99.90
20376;DHT22;10347;51.828;6.466;2023-01-15T02:27:55;9.50;99.90
20376;DHT22;10347;51.828;6.466;2023-01-15T02:30:28;9.50;99.90
20376;DHT22;10347;51.828;6.466;2023-01-15T02:33:05;9.50;99.90
20376;DHT22;10347;51.828;6.466;2023-01-15T02:35:39;9.40;99.90
20376;DHT22;10347;51.828;6.466;2023-01-15T02:38:08;9.50;99.90
20376;DHT22;10347;51.828;6.466;2023-01-15T02:40:36;9.50;99.90
20376;DHT22;10347;51.828;6.466;2023-01-15T02:43:04;9.50;99.90
20376;DHT22;10347;51.828;6.466;2023-01-15T02:45:33;9.40;99.90
20376;DHT22;10347;51.828;6.466;2023-01-15T02:48:04;9.40;99.90
20376;DHT22;10347;51.828;6.466;2023-01-15T02:50:38;9.40;99.90
20376;DHT22;10347;51.828;6.466;2023-01-15T02:53:07;9.40;99.90
20376;DHT22;10347;51.828;6.466;2023-01-15T02:55:43;9.30;99.90
20376;DHT22;10347;51.828;6.466;2023-01-15T02:58:19;9.30;99.90
20376;DHT22;10347;51.828;6.466;2023-01-15T03:00:48;9.30;99.90
20376;DHT22;10347;51.828;6.466;2023-01-15T03:03:25;9.30;99.90
20376;DHT22;10347;51.828;6.466;2023-01-15T03:06:12;9.30;99.90
20376;DHT22;10347;51.828;6.466;2023-01-15T03:08:39;9.30;99.90
20376;DHT22;10347;51.828;6.466;2023-01-15T03:11:07;9.20;99.90
20376;DHT22;10347;51.828;6.466;2023-01-15T03:16:29;9.30;99.90
20376;DHT22;10347;51.828;6.466;2023-01-15T03:22:18;9.20;99.90
20376;DHT22;10347;51.828;6.466;2023-01-15T03:25:05;9.20;99.90
20376;DHT22;10347;51.828;6.466;2023-01-15T03:27:32;9.20;99.90
20376;DHT22;10347;51.828;6.466;2023-01-15T03:30:03;9.20;99.90
20376;DHT22;10347;51.828;6.466;2023-01-15T03:32:29;9.20;99.90
20376;DHT22;10347;51.828;6.466;2023-01-15T03:34:56;9.20;99.90
20376;DHT22;10347;51.828;6.466;2023-01-15T03:37:24;9.20;99.90
20376;DHT22;10347;51.828;6.466;2023-01-15T03:39:50;9.20;99.90
20376;DHT22;10347;51.828;6.466;2023-01-15T03:47:47;9.20;99.90
20376;DHT22;10347;51.828;6.466;2023-01-15T03:50:31;9.20;99.90
20376;DHT22;10347;51.828;6.466;2023-01-15T03:53:28;9.20;99.90
20376;DHT22;10347;51.828;6.466;2023-01-15T03:56:07;9.10;99.90
20376;DHT22;10347;51.828;6.466;2023-01-15T03:58:51;9.10;99.90
20376;DHT22;10347;51.828;6.466;2023-01-15T04:01:26;9.10;99.90
20376;DHT22;10347;51.828;6.466;2023-01-15T04:03:53;9.10;99.90
20376;DHT22;10347;51.828;6.466;2023-01-15T04:06:20;9.10;99.90
20376;DHT22;10347;51.828;6.466;2023-01-15T04:08:47;9.10;99.90
20376;DHT22;10347;51.828;6.466;2023-01-15T04:11:21;9.10;99.90
20376;DHT22;10347;51.828;6.466;2023-01-15T04:13:47;9.00;99.90
20376;DHT22;10347;51.828;6.466;2023-01-15T04:16:12;9.00;99.90
20376;DHT22;10347;51.828;6.466;2023-01-15T04:18:38;9.00;99.90
20376;DHT22;10347;51.828;6.466;2023-01-15T04:21:04;9.00;99.90
20376;DHT22;10347;51.828;6.466;2023-01-15T04:23:29;9.00;99.90
20376;DHT22;10347;51.828;6.466;2023-01-15T04:25:55;9.00;99.90
20376;DHT22;10347;51.828;6.466;2023-01-15T04:28:21;9.00;99.90
20376;DHT22;10347;51.828;6.466;2023-01-15T04:30:46;9.10;99.90
20376;DHT22;10347;51.828;6.466;2023-01-15T04:33:12;9.00;99.90
20376;DHT22;10347;51.828;6.466;2023-01-15T04:35:38;9.00;99.90
20376;DHT22;10347;51.828;6.466;2023-01-15T04:38:03;9.00;99.90
20376;DHT22;10347;51.828;6.466;2023-01-15T04:40:29;9.00;99.90
20376;DHT22;10347;51.828;6.466;2023-01-15T04:43:13;8.90;99.90
20376;DHT22;10347;51.828;6.466;2023-01-15T04:45:58;9.00;99.90
20376;DHT22;10347;51.828;6.466;2023-01-15T04:48:25;9.00;99.90
20376;DHT22;10347;51.828;6.466;2023-01-15T04:50:50;8.90;99.90
20376;DHT22;10347;51.828;6.466;2023-01-15T04:53:16;8.90;99.90
20376;DHT22;10347;51.828;6.466;2023-01-15T04:55:41;8.90;99.90
20376;DHT22;10347;51.828;6.466;2023-01-15T04:58:07;8.90;99.90
20376;DHT22;10347;51.828;6.466;2023-01-15T05:00:33;8.90;99.90
20376;DHT22;10347;51.828;6.466;2023-01-15T05:02:58;8.90;99.90
20376;DHT22;10347;51.828;6.466;2023-01-15T05:05:24;8.90;99.90
20376;DHT22;10347;51.828;6.466;2023-01-15T05:07:49;8.90;99.90
20376;DHT22;10347;51.828;6.466;2023-01-15T05:10:15;8.90;99.90
20376;DHT22;10347;51.828;6.466;2023-01-15T05:12:41;8.90;99.90
20376;DHT22;10347;51.828;6.466;2023-01-15T05:15:07;8.90;99.90
20376;DHT22;10347;51.828;6.466;2023-01-15T05:17:33;8.90;99.90
20376;DHT22;10347;51.828;6.466;2023-01-15T05:19:58;8.80;99.90
20376;DHT22;10347;51.828;6.466;2023-01-15T05:22:24;8.80;99.90
20376;DHT22;10347;51.828;6.466;2023-01-15T05:24:50;8.80;99.90
20376;DHT22;10347;51.828;6.466;2023-01-15T05:27:15;8.80;99.90
20376;DHT22;10347;51.828;6.466;2023-01-15T05:29:41;8.80;99.90
20376;DHT22;10347;51.828;6.466;2023-01-15T05:32:07;8.80;99.90
20376;DHT22;10347;51.828;6.466;2023-01-15T05:34:32;8.80;99.90
20376;DHT22;10347;51.828;6.466;2023-01-15T05:36:58;8.70;99.90
20376;DHT22;10347;51.828;6.466;2023-01-15T05:39:23;8.80;99.90
20376;DHT22;10347;51.828;6.466;2023-01-15T05:41:49;8.80;99.90
20376;DHT22;10347;51.828;6.466;2023-01-15T05:44:25;8.70;99.90
20376;DHT22;10347;51.828;6.466;2023-01-15T05:46:57;8.70;99.90
20376;DHT22;10347;51.828;6.466;2023-01-15T05:49:25;8.70;99.90
20376;DHT22;10347;51.828;6.466;2023-01-15T05:51:52;8.70;99.90
20376;DHT22;10347;51.828;6.466;2023-01-15T05:54:20;8.80;99.90
20376;DHT22;10347;51.828;6.466;2023-01-15T05:56:46;8.80;99.90
20376;DHT22;10347;51.828;6.466;2023-01-15T05:59:14;8.70;99.90
20376;DHT22;10347;51.828;6.466;2023-01-15T06:01:40;8.80;99.90
20376;DHT22;10347;51.828;6.466;2023-01-15T06:04:06;8.80;99.90
20376;DHT22;10347;51.828;6.466;2023-01-15T06:06:33;8.70;99.90
20376;DHT22;10347;51.828;6.466;2023-01-15T06:08:59;8.70;99.90
20376;DHT22;10347;51.828;6.466;2023-01-15T06:11:25;8.70;99.90
20376;DHT22;10347;51.828;6.466;2023-01-15T06:13:51;8.70;99.90
20376;DHT22;10347;51.828;6.466;2023-01-15T06:16:16;8.70;99.90
20376;DHT22;10347;51.828;6.466;2023-01-15T06:18:43;8.70;99.90
20376;DHT22;10347;51.828;6.466;2023-01-15T06:21:11;8.70;99.90
20376;DHT22;10347;51.828;6.466;2023-01-15T06:23:37;8.70;99.90
20376;DHT22;10347;51.828;6.466;2023-01-15T06:26:06;8.70;99.90
20376;DHT22;10347;51.828;6.466;2023-01-15T06:28:33;8.70;99.90
20376;DHT22;10347;51.828;6.466;2023-01-15T06:30:59;8.70;99.90
20376;DHT22;10347;51.828;6.466;2023-01-15T06:33:25;8.70;99.90
20376;DHT22;10347;51.828;6.466;2023-01-15T06:35:50;8.70;99.90
20376;DHT22;10347;51.828;6.466;2023-01-15T06:38:16;8.70;99.90
20376;DHT22;10347;51.828;6.466;2023-01-15T06:40:42;8.70;99.90
20376;DHT22;10347;51.828;6.466;2023-01-15T06:43:09;8.70;99.90
20376;DHT22;10347;51.828;6.466;2023-01-15T06:45:53;8.70;99.90
20376;DHT22;10347;51.828;6.466;2023-01-15T06:48:38;8.60;99.90
20376;DHT22;10347;51.828;6.466;2023-01-15T06:51:03;8.60;99.90
20376;DHT22;10347;51.828;6.466;2023-01-15T06:53:29;8.60;99.90
20376;DHT22;10347;51.828;6.466;2023-01-15T06:55:54;8.60;99.90
20376;DHT22;10347;51.828;6.466;2023-01-15T06:58:20;8.60;99.90
20376;DHT22;10347;51.828;6.466;2023-01-15T07:00:48;8.60;99.90
20376;DHT22;10347;51.828;6.466;2023-01-15T07:03:20;8.60;99.90
20376;DHT22;10347;51.828;6.466;2023-01-15T07:05:46;8.60;99.90
20376;DHT22;10347;51.828;6.466;2023-01-15T07:08:11;8.60;99.90
20376;DHT22;10347;51.828;6.466;2023-01-15T07:10:37;8.60;99.90
20376;DHT22;10347;51.828;6.466;2023-01-15T07:13:02;8.60;99.90
20376;DHT22;10347;51.828;6.466;2023-01-15T07:15:28;8.60;99.90
20376;DHT22;10347;51.828;6.466;2023-01-15T07:17:56;8.50;99.90
20376;DHT22;10347;51.828;6.466;2023-01-15T07:20:21;8.50;99.90
20376;DHT22;10347;51.828;6.466;2023-01-15T07:22:50;8.60;99.90
20376;DHT22;10347;51.828;6.466;2023-01-15T07:25:16;8.50;99.90
20376;DHT22;10347;51.828;6.466;2023-01-15T07:27:42;8.50;99.90
20376;DHT22;10347;51.828;6.466;2023-01-15T07:30:10;8.50;99.90
20376;DHT22;10347;51.828;6.466;2023-01-15T07:32:36;8.50;99.90
20376;DHT22;10347;51.828;6.466;2023-01-15T07:35:01;8.50;99.90
20376;DHT22;10347;51.828;6.466;2023-01-15T07:37:27;8.50;99.90
20376;DHT22;10347;51.828;6.466;2023-01-15T07:39:53;8.50;99.90
20376;DHT22;10347;51.828;6.466;2023-01-15T07:42:18;8.50;99.90
20376;DHT22;10347;51.828;6.466;2023-01-15T07:45:03;8.50;99.90
20376;DHT22;10347;51.828;6.466;2023-01-15T07:48:09;8.40;99.90
20376;DHT22;10347;51.828;6.466;2023-01-15T07:50:53;8.40;99.90
20376;DHT22;10347;51.828;6.466;2023-01-15T07:53:19;8.40;99.90
20376;DHT22;10347;51.828;6.466;2023-01-15T07:55:44;8.40;99.90
20376;DHT22;10347;51.828;6.466;2023-01-15T07:58:10;8.40;99.90
20376;DHT22;10347;51.828;6.466;2023-01-15T08:00:35;8.40;99.90
20376;DHT22;10347;51.828;6.466;2023-01-15T08:03:01;8.40;99.90
20376;DHT22;10347;51.828;6.466;2023-01-15T08:05:27;8.40;99.90
20376;DHT22;10347;51.828;6.466;2023-01-15T08:07:53;8.30;99.90
20376;DHT22;10347;51.828;6.466;2023-01-15T08:10:19;8.30;99.90
20376;DHT22;10347;51.828;6.466;2023-01-15T08:12:44;8.30;99.90
20376;DHT22;10347;51.828;6.466;2023-01-15T08:15:32;8.30;99.90
20376;DHT22;10347;51.828;6.466;2023-01-15T08:17:59;8.30;99.90
20376;DHT22;10347;51.828;6.466;2023-01-15T08:20:25;8.30;99.90
20376;DHT22;10347;51.828;6.466;2023-01-15T08:22:51;8.30;99.90
20376;DHT22;10347;51.828;6.466;2023-01-15T08:25:19;8.30;99.90
20376;DHT22;10347;51.828;6.466;2023-01-15T08:27:45;8.30;99.90
20376;DHT22;10347;51.828;6.466;2023-01-15T08:30:14;8.30;99.90
20376;DHT22;10347;51.828;6.466;2023-01-15T08:32:40;8.30;99.90
20376;DHT22;10347;51.828;6.466;2023-01-15T08:35:06;8.30;99.90
20376;DHT22;10347;51.828;6.466;2023-01-15T08:37:32;8.20;99.90
20376;DHT22;10347;51.828;6.466;2023-01-15T08:39:57;8.20;99.90
20376;DHT22;10347;51.828;6.466;2023-01-15T08:42:23;8.30;99.90
20376;DHT22;10347;51.828;6.466;2023-01-15T08:44:49;8.30;99.90
20376;DHT22;10347;51.828;6.466;2023-01-15T08:47:15;8.30;99.90
20376;DHT22;10347;51.828;6.466;2023-01-15T08:49:40;8.30;99.90
20376;DHT22;10347;51.828;6.466;2023-01-15T08:52:06;8.30;99.90
20376;DHT22;10347;51.828;6.466;2023-01-15T08:54:32;8.30;99.90
20376;DHT22;10347;51.828;6.466;2023-01-15T08:56:58;8.30;99.90
20376;DHT22;10347;51.828;6.466;2023-01-15T08:59:24;8.30;99.90
20376;DHT22;10347;51.828;6.466;2023-01-15T09:01:50;8.30;99.90
20376;DHT22;10347;51.828;6.466;2023-01-15T09:04:18;8.30;99.90
20376;DHT22;10347;51.828;6.466;2023-01-15T09:06:45;8.30;99.90
20376;DHT22;10347;51.828;6.466;2023-01-15T09:09:11;8.30;99.90
20376;DHT22;10347;51.828;6.466;2023-01-15T09:11:37;8.30;99.90
20376;DHT22;10347;51.828;6.466;2023-01-15T09:14:11;8.30;99.90
20376;DHT22;10347;51.828;6.466;2023-01-15T09:16:37;8.30;99.90
20376;DHT22;10347;51.828;6.466;2023-01-15T09:19:05;8.30;99.90
20376;DHT22;10347;51.828;6.466;2023-01-15T09:21:32;8.30;99.90
20376;DHT22;10347;51.828;6.466;2023-01-15T09:23:57;8.30;99.90
20376;DHT22;10347;51.828;6.466;2023-01-15T09:26:29;8.30;99.90
20376;DHT22;10347;51.828;6.466;2023-01-15T09:28:56;8.30;99.90
20376;DHT22;10347;51.828;6.466;2023-01-15T09:31:23;8.30;99.90
20376;DHT22;10347;51.828;6.466;2023-01-15T09:33:48;8.30;99.90
20376;DHT22;10347;51.828;6.466;2023-01-15T09:36:22;8.40;99.90
20376;DHT22;10347;51.828;6.466;2023-01-15T09:38:48;8.40;99.90
20376;DHT22;10347;51.828;6.466;2023-01-15T09:41:14;8.40;99.90
20376;DHT22;10347;51.828;6.466;2023-01-15T09:47:25;8.50;99.90
20376;DHT22;10347;51.828;6.466;2023-01-15T09:50:14;8.50;99.90
20376;DHT22;10347;51.828;6.466;2023-01-15T09:55:19;8.50;99.90
20376;DHT22;10347;51.828;6.466;2023-01-15T09:57:51;8.50;99.90
20376;DHT22;10347;51.828;6.466;2023-01-15T10:00:22;8.60;99.90
20376;DHT22;10347;51.828;6.466;2023-01-15T10:08:25;8.70;99.90
20376;DHT22;10347;51.828;6.466;2023-01-15T10:10:57;8.70;99.90
20376;DHT22;10347;51.828;6.466;2023-01-15T10:13:36;8.70;99.90
20376;DHT22;10347;51.828;6.466;2023-01-15T10:16:04;8.80;99.90
20376;DHT22;10347;51.828;6.466;2023-01-15T10:18:30;8.80;99.90
20376;DHT22;10347;51.828;6.466;2023-01-15T10:29:42;8.90;99.90
20376;DHT22;10347;51.828;6.466;2023-01-15T10:32:22;8.90;99.90
20376;DHT22;10347;51.828;6.466;2023-01-15T10:37:43;9.00;99.90
20376;DHT22;10347;51.828;6.466;2023-01-15T10:46:02;9.00;99.90
20376;DHT22;10347;51.828;6.466;2023-01-15T10:48:39;9.00;99.90
20376;DHT22;10347;51.828;6.466;2023-01-15T10:51:17;9.00;99.90
20376;DHT22;10347;51.828;6.466;2023-01-15T10:53:54;9.10;99.90
20376;DHT22;10347;51.828;6.466;2023-01-15T10:59:27;9.10;99.90
20376;DHT22;10347;51.828;6.466;2023-01-15T11:01:58;9.10;99.90
20376;DHT22;10347;51.828;6.466;2023-01-15T11:04:25;9.10;99.90
20376;DHT22;10347;51.828;6.466;2023-01-15T11:06:53;9.10;99.90
20376;DHT22;10347;51.828;6.466;2023-01-15T11:09:22;9.10;99.90
20376;DHT22;10347;51.828;6.466;2023-01-15T11:11:51;9.10;99.90
20376;DHT22;10347;51.828;6.466;2023-01-15T11:14:41;9.20;99.90
20376;DHT22;10347;51.828;6.466;2023-01-15T11:17:37;9.20;99.90
20376;DHT22;10347;51.828;6.466;2023-01-15T11:20:33;9.20;99.90
20376;DHT22;10347;51.828;6.466;2023-01-15T11:23:08;9.20;99.90
20376;DHT22;10347;51.828;6.466;2023-01-15T11:25:34;9.20;99.90
20376;DHT22;10347;51.828;6.466;2023-01-15T11:28:04;9.20;99.90
20376;DHT22;10347;51.828;6.466;2023-01-15T11:30:33;9.20;99.90
20376;DHT22;10347;51.828;6.466;2023-01-15T11:33:01;9.20;99.90
20376;DHT22;10347;51.828;6.466;2023-01-15T11:35:32;9.20;99.90
20376;DHT22;10347;51.828;6.466;2023-01-15T11:38:05;9.30;99.90
20376;DHT22;10347;51.828;6.466;2023-01-15T11:40:32;9.30;99.90
20376;DHT22;10347;51.828;6.466;2023-01-15T11:42:58;9.30;99.90
20376;DHT22;10347;51.828;6.466;2023-01-15T11:45:47;9.30;99.90
20376;DHT22;10347;51.828;6.466;2023-01-15T11:48:46;9.30;99.90
20376;DHT22;10347;51.828;6.466;2023-01-15T11:51:35;9.30;99.90
20376;DHT22;10347;51.828;6.466;2023-01-15T11:54:09;9.30;99.90
20376;DHT22;10347;51.828;6.466;2023-01-15T11:56:35;9.30;99.90
20376;DHT22;10347;51.828;6.466;2023-01-15T11:59:03;9.20;99.90
20376;DHT22;10347;51.828;6.466;2023-01-15T12:01:37;9.30;99.90
20376;DHT22;10347;51.828;6.466;2023-01-15T12:04:21;9.20;99.90
20376;DHT22;10347;51.828;6.466;2023-01-15T12:06:48;9.30;99.90
20376;DHT22;10347;51.828;6.466;2023-01-15T12:09:25;9.20;99.90
20376;DHT22;10347;51.828;6.466;2023-01-15T12:14:50;9.20;99.90
20376;DHT22;10347;51.828;6.466;2023-01-15T12:20:10;9.30;99.90
20376;DHT22;10347;51.828;6.466;2023-01-15T12:29:26;9.30;99.90
20376;DHT22;10347;51.828;6.466;2023-01-15T12:31:58;9.30;99.90
20376;DHT22;10347;51.828;6.466;2023-01-15T12:39:50;9.30;99.90
20376;DHT22;10347;51.828;6.466;2023-01-15T12:42:20;9.30;99.90
20376;DHT22;10347;51.828;6.466;2023-01-15T12:45:17;9.30;99.90
20376;DHT22;10347;51.828;6.466;2023-01-15T12:47:52;9.30;99.90
20376;DHT22;10347;51.828;6.466;2023-01-15T12:56:01;9.40;99.90
20376;DHT22;10347;51.828;6.466;2023-01-15T12:58:55;9.30;99.90
20376;DHT22;10347;51.828;6.466;2023-01-15T13:04:26;9.30;99.90
20376;DHT22;10347;51.828;6.466;2023-01-15T13:07:00;9.30;99.90
20376;DHT22;10347;51.828;6.466;2023-01-15T13:09:42;9.30;99.90
20376;DHT22;10347;51.828;6.466;2023-01-15T13:12:12;9.20;99.90
20376;DHT22;10347;51.828;6.466;2023-01-15T13:14:38;9.30;99.90
20376;DHT22;10347;51.828;6.466;2023-01-15T13:20:27;9.20;99.90
20376;DHT22;10347;51.828;6.466;2023-01-15T13:23:08;9.20;99.90
20376;DHT22;10347;51.828;6.466;2023-01-15T13:25:47;9.20;99.90
20376;DHT22;10347;51.828;6.466;2023-01-15T13:33:59;9.10;99.90
20376;DHT22;10347;51.828;6.466;2023-01-15T13:36:31;9.10;99.90
20376;DHT22;10347;51.828;6.466;2023-01-15T13:39:00;9.20;99.90
20376;DHT22;10347;51.828;6.466;2023-01-15T13:41:30;9.20;99.90
20376;DHT22;10347;51.828;6.466;2023-01-15T13:44:24;9.20;99.90
20376;DHT22;10347;51.828;6.466;2023-01-15T13:47:04;9.20;99.90
20376;DHT22;10347;51.828;6.466;2023-01-15T13:49:35;9.20;99.90
20376;DHT22;10347;51.828;6.466;2023-01-15T13:52:04;9.20;99.90
20376;DHT22;10347;51.828;6.466;2023-01-15T13:54:32;9.20;99.90
20376;DHT22;10347;51.828;6.466;2023-01-15T13:57:23;9.20;99.90
20376;DHT22;10347;51.828;6.466;2023-01-15T13:59:49;9.20;99.90
20376;DHT22;10347;51.828;6.466;2023-01-15T14:02:33;9.20;99.90
20376;DHT22;10347;51.828;6.466;2023-01-15T14:07:43;9.20;99.90
20376;DHT22;10347;51.828;6.466;2023-01-15T14:15:59;9.20;99.90
20376;DHT22;10347;51.828;6.466;2023-01-15T14:21:28;9.20;99.90
20376;DHT22;10347;51.828;6.466;2023-01-15T14:26:55;9.20;99.90
20376;DHT22;10347;51.828;6.466;2023-01-15T14:30:28;9.20;99.90
20376;DHT22;10347;51.828;6.466;2023-01-15T14:35:23;9.10;99.90
20376;DHT22;10347;51.828;6.466;2023-01-15T14:38:02;9.10;99.90
20376;DHT22;10347;51.828;6.466;2023-01-15T14:40:31;9.10;99.90
20376;DHT22;10347;51.828;6.466;2023-01-15T14:43:01;9.10;99.90
20376;DHT22;10347;51.828;6.466;2023-01-15T14:45:39;9.00;99.90
20376;DHT22;10347;51.828;6.466;2023-01-15T14:50:54;9.10;99.90
20376;DHT22;10347;51.828;6.466;2023-01-15T14:53:47;9.00;99.90
20376;DHT22;10347;51.828;6.466;2023-01-15T14:56:18;9.00;99.90
20376;DHT22;10347;51.828;6.466;2023-01-15T14:58:52;8.90;99.90
20376;DHT22;10347;51.828;6.466;2023-01-15T15:01:35;8.90;99.90
20376;DHT22;10347;51.828;6.466;2023-01-15T15:04:32;8.80;99.90
20376;DHT22;10347;51.828;6.466;2023-01-15T15:07:03;8.80;99.90
20376;DHT22;10347;51.828;6.466;2023-01-15T15:09:38;8.80;99.90
20376;DHT22;10347;51.828;6.466;2023-01-15T15:15:11;8.80;99.90
20376;DHT22;10347;51.828;6.466;2023-01-15T15:22:52;8.90;99.90
20376;DHT22;10347;51.828;6.466;2023-01-15T15:25:26;8.90;99.90
20376;DHT22;10347;51.828;6.466;2023-01-15T15:28:09;8.90;99.90
20376;DHT22;10347;51.828;6.466;2023-01-15T15:30:41;8.90;99.90
20376;DHT22;10347;51.828;6.466;2023-01-15T15:33:16;8.90;99.90
20376;DHT22;10347;51.828;6.466;2023-01-15T15:36:02;8.90;99.90
20376;DHT22;10347;51.828;6.466;2023-01-15T15:38:28;8.90;99.90
20376;DHT22;10347;51.828;6.466;2023-01-15T15:40:57;8.90;99.90
20376;DHT22;10347;51.828;6.466;2023-01-15T15:43:28;8.90;99.90
20376;DHT22;10347;51.828;6.466;2023-01-15T15:46:26;8.90;99.90
20376;DHT22;10347;51.828;6.466;2023-01-15T15:49:10;8.90;99.90
20376;DHT22;10347;51.828;6.466;2023-01-15T15:54:16;8.90;99.90
20376;DHT22;10347;51.828;6.466;2023-01-15T15:59:36;8.90;99.90
20376;DHT22;10347;51.828;6.466;2023-01-15T16:04:51;8.80;99.90
20376;DHT22;10347;51.828;6.466;2023-01-15T16:07:32;8.80;99.90
20376;DHT22;10347;51.828;6.466;2023-01-15T16:10:24;8.80;99.90
20376;DHT22;10347;51.828;6.466;2023-01-15T16:12:52;8.80;99.90
20376;DHT22;10347;51.828;6.466;2023-01-15T16:15:22;8.80;99.90
20376;DHT22;10347;51.828;6.466;2023-01-15T16:17:48;8.80;99.90
20376;DHT22;10347;51.828;6.466;2023-01-15T16:20:16;8.80;99.90
20376;DHT22;10347;51.828;6.466;2023-01-15T16:22:45;8.80;99.90
20376;DHT22;10347;51.828;6.466;2023-01-15T16:25:23;8.80;99.90
20376;DHT22;10347;51.828;6.466;2023-01-15T16:27:49;8.80;99.90
20376;DHT22;10347;51.828;6.466;2023-01-15T16:30:15;8.80;99.90
20376;DHT22;10347;51.828;6.466;2023-01-15T16:32:41;8.80;99.90
20376;DHT22;10347;51.828;6.466;2023-01-15T16:35:28;8.80;99.90
20376;DHT22;10347;51.828;6.466;2023-01-15T16:37:56;8.80;99.90
20376;DHT22;10347;51.828;6.466;2023-01-15T16:40:35;8.80;99.90
20376;DHT22;10347;51.828;6.466;2023-01-15T16:43:11;8.80;99.90
20376;DHT22;10347;51.828;6.466;2023-01-15T16:46:04;8.80;99.90
20376;DHT22;10347;51.828;6.466;2023-01-15T16:48:34;8.80;99.90
20376;DHT22;10347;51.828;6.466;2023-01-15T16:53:51;8.70;99.90
20376;DHT22;10347;51.828;6.466;2023-01-15T16:59:16;8.70;99.90
20376;DHT22;10347;51.828;6.466;2023-01-15T17:01:47;8.70;99.90
20376;DHT22;10347;51.828;6.466;2023-01-15T17:07:18;8.60;99.90
20376;DHT22;10347;51.828;6.466;2023-01-15T17:09:48;8.70;99.90
20376;DHT22;10347;51.828;6.466;2023-01-15T17:12:28;8.60;99.90
20376;DHT22;10347;51.828;6.466;2023-01-15T17:17:44;8.70;99.90
20376;DHT22;10347;51.828;6.466;2023-01-15T17:20:11;8.60;99.90
20376;DHT22;10347;51.828;6.466;2023-01-15T17:22:40;8.60;99.90
20376;DHT22;10347;51.828;6.466;2023-01-15T17:27:45;8.60;99.90
20376;DHT22;10347;51.828;6.466;2023-01-15T17:30:12;8.60;99.90
20376;DHT22;10347;51.828;6.466;2023-01-15T17:32:38;8.50;99.90
20376;DHT22;10347;51.828;6.466;2023-01-15T17:35:28;8.50;99.90
20376;DHT22;10347;51.828;6.466;2023-01-15T17:37:52;8.50;99.90
20376;DHT22;10347;51.828;6.466;2023-01-15T17:40:18;8.50;99.90
20376;DHT22;10347;51.828;6.466;2023-01-15T17:42:44;8.50;99.90
20376;DHT22;10347;51.828;6.466;2023-01-15T17:45:30;8.50;99.90
20376;DHT22;10347;51.828;6.466;2023-01-15T17:47:55;8.50;99.90
20376;DHT22;10347;51.828;6.466;2023-01-15T17:50:22;8.50;99.90
20376;DHT22;10347;51.828;6.466;2023-01-15T17:52:48;8.50;99.90
20376;DHT22;10347;51.828;6.466;2023-01-15T17:55:17;8.50;99.90
20376;DHT22;10347;51.828;6.466;2023-01-15T17:58:02;8.50;99.90
20376;DHT22;10347;51.828;6.466;2023-01-15T18:00:47;8.40;99.90
20376;DHT22;10347;51.828;6.466;2023-01-15T18:03:31;8.40;99.90
20376;DHT22;10347;51.828;6.466;2023-01-15T18:06:16;8.40;99.90
20376;DHT22;10347;51.828;6.466;2023-01-15T18:08:47;8.40;99.90
20376;DHT22;10347;51.828;6.466;2023-01-15T18:11:13;8.40;99.90
20376;DHT22;10347;51.828;6.466;2023-01-15T18:13:39;8.40;99.90
20376;DHT22;10347;51.828;6.466;2023-01-15T18:16:08;8.40;99.90
20376;DHT22;10347;51.828;6.466;2023-01-15T18:18:34;8.40;99.90
20376;DHT22;10347;51.828;6.466;2023-01-15T18:21:00;8.30;99.90
20376;DHT22;10347;51.828;6.466;2023-01-15T18:23:26;8.30;99.90